• Join FlightAware (Why Join?)
  • Login
  • US Flag 
09:32AM EDT


 

Airport Tracker/Info


-or-


 

Live Flight TrackerFlight Track Log ✈ ACA288 ✈ 01-Jul-2013 ✈ CYXY - CYVR

Flight Track Log - Related Links

Times and Time Zones

All times are in EDT time to prevent confusion due to time zone crossing. See the ACA288 flight status page for this flight to view local times or setup timezone preferences in your user account.

Time Position Orientation Groundspeed Altitude Reporting Facility
EDT Latitude Longitude Course Direction KTS MPH feet Rate Location/Type
10:12AM 60.3271 -134.6542 141° Southeast  Level FlightAware Approximate
10:13AM 60.2374 -134.5062 140° Southeast  Level FlightAware Approximate
10:14AM 60.1483 -134.3572 140° Southeast  Level FlightAware Approximate
10:15AM 60.0671 -134.2151 139° Southeast  Level FlightAware Approximate
10:16AM 59.9857 -134.0738 139° Southeast  Level FlightAware Approximate
10:17AM 59.9042 -133.9331 139° Southeast  Level FlightAware Approximate
10:18AM 59.8226 -133.7931 139° Southeast  Level FlightAware Approximate
10:19AM 59.7408 -133.6538 139° Southeast  Level FlightAware Approximate
10:20AM 59.6588 -133.5152 139° Southeast  Level FlightAware Approximate
10:21AM 59.5767 -133.3772 140° Southeast  Level FlightAware Approximate
10:22AM 59.4945 -133.2400 140° Southeast  Level FlightAware Approximate
10:23AM 59.4121 -133.1034 140° Southeast  Level FlightAware Approximate
10:24AM 59.3296 -132.9674 140° Southeast  Level FlightAware Approximate
10:25AM 59.2469 -132.8322 140° Southeast  Level FlightAware Approximate
10:26AM 59.1641 -132.6975 140° Southeast  Level FlightAware Approximate
10:27AM 59.0811 -132.5636 140° Southeast  Level FlightAware Approximate
10:28AM 58.9963 -132.4279 143° Southeast  Level FlightAware Approximate
10:29AM 58.9102 -132.3025 143° Southeast  Level FlightAware Approximate
10:30AM 58.8239 -132.1777 143° Southeast  Level FlightAware Approximate
10:31AM 58.7375 -132.0535 143° Southeast  Level FlightAware Approximate
10:32AM 58.6510 -131.9299 143° Southeast  Level FlightAware Approximate
10:33AM 58.5644 -131.8069 143° Southeast  Level FlightAware Approximate
10:34AM 58.4793 -131.6867 144° Southeast  Level FlightAware Approximate
10:35AM 58.3940 -131.5672 144° Southeast  Level FlightAware Approximate
10:36AM 58.3087 -131.4482 144° Southeast  Level FlightAware Approximate
10:37AM 58.2232 -131.3299 144° Southeast  Level FlightAware Approximate
10:38AM 58.1376 -131.2120 144° Southeast  Level FlightAware Approximate
10:39AM 58.0520 -131.0948 144° Southeast  Level FlightAware Approximate
10:40AM 57.9662 -130.9781 144° Southeast  Level FlightAware Approximate
10:41AM 57.8803 -130.8620 144° Southeast  Level FlightAware Approximate
10:42AM 57.7943 -130.7464 144° Southeast  Level FlightAware Approximate
10:43AM 57.7082 -130.6314 144° Southeast  Level FlightAware Approximate
10:44AM 57.6220 -130.5169 145° Southeast  Level FlightAware Approximate
10:45AM 57.5357 -130.4029 145° Southeast  Level FlightAware Approximate
10:46AM 57.4493 -130.2895 145° Southeast  Level FlightAware Approximate
10:47AM 57.3627 -130.1767 145° Southeast  Level FlightAware Approximate
10:48AM 57.2761 -130.0643 145° Southeast  Level FlightAware Approximate
10:49AM 57.1894 -129.9525 145° Southeast  Level FlightAware Approximate
10:50AM 57.1026 -129.8413 145° Southeast  Level FlightAware Approximate
10:51AM 57.0157 -129.7305 145° Southeast  Level FlightAware Approximate
10:51AM 57.1000 -129.9333 145° Southeast 390 449 35,000  Level Vancouver Center
10:52AM 56.9287 -129.6203 145° Southeast  Level FlightAware Approximate
10:52AM 57.0167 -129.8000 139° Southeast 390 449 35,000  Level Vancouver Center
10:53AM 56.8416 -129.5105 145° Southeast  Level FlightAware Approximate
10:53AM 56.9167 -129.6500 141° Southeast 400 460 35,000  Level Vancouver Center
10:54AM 56.7545 -129.4009 145° Southeast  Level FlightAware Approximate
10:55AM 56.6682 -129.2897 145° Southeast  Level FlightAware Approximate
10:56AM 56.5817 -129.1790 145° Southeast  Level FlightAware Approximate
10:56AM 56.6667 -129.3500 147° Southeast 380 437 35,000  Level Vancouver Center
10:57AM 56.4952 -129.0688 145° Southeast  Level FlightAware Approximate
10:57AM 56.5667 -129.2333 147° Southeast 380 437 35,000  Level Vancouver Center
11:00AM 56.4214 -129.0891 151° Southeast  Level Estimated
11:03AM 56.0167 -128.7167 152° Southeast 360 414 35,000  Level Vancouver Center
11:04AM 55.9167 -128.6500 160° South 380 437 35,500 600 Climbing Vancouver Center
11:05AM 55.8333 -128.5500 146° Southeast 370 426 36,200 720 Climbing Vancouver Center
11:06AM 55.7500 -128.4500 146° Southeast 380 437 37,000 360 Climbing Vancouver Center
11:07AM 55.7841 -128.4707 151° Southeast  Level Estimated
11:07AM 55.6500 -128.3833 159° South 370 426 37,000  Level Vancouver Center
11:08AM 55.6928 -128.3841 152° Southeast  Level Estimated
11:08AM 55.5500 -128.2833 150° Southeast 400 460 37,000  Level Vancouver Center
11:09AM 55.4500 -128.2000 155° Southeast 380 437 37,000  Level Vancouver Center
11:10AM 55.3500 -128.1167 155° Southeast 380 437 37,000  Level Vancouver Center
11:12AM 55.2135 -127.9998 154° Southeast  Level FlightAware Approximate
11:12AM 55.1833 -127.9500 154° Southeast 370 426 37,000  Level Vancouver Center
11:13AM 55.0833 -127.8500 150° Southeast 380 437 37,000  Level Vancouver Center
11:14AM 54.9833 -127.7833 159° South 380 437 37,000  Level Vancouver Center
11:15AM 54.8833 -127.6833 150° Southeast 390 449 37,000  Level Vancouver Center
11:16AM 54.7833 -127.6167 159° South 380 437 37,000  Level Vancouver Center
11:17AM 54.7000 -127.5167 145° Southeast 380 437 37,000  Level Vancouver Center
11:18AM 54.6000 -127.4333 154° Southeast 400 460 37,000  Level Vancouver Center
11:19AM 54.5000 -127.3667 159° South 390 449 37,000  Level Vancouver Center
11:21AM 54.3621 -127.2573 155° Southeast  Level FlightAware Approximate
11:21AM 54.3167 -127.2000 155° Southeast 370 426 37,000  Level Vancouver Center
11:22AM 54.2167 -127.1000 150° Southeast 380 437 37,000  Level Vancouver Center
11:23AM 54.1333 -127.0500 161° South 380 437 37,000  Level Vancouver Center
11:24AM 54.0167 -126.9500 153° Southeast 390 449 37,000  Level Vancouver Center
11:25AM 53.9333 -126.8667 150° Southeast 400 460 37,000  Level Vancouver Center
11:26AM 53.8333 -126.7667 149° Southeast 400 460 37,000  Level Vancouver Center
11:28AM 53.6932 -126.6713 158° South  Level FlightAware Approximate
11:28AM 53.6333 -126.6167 158° South 400 460 37,000  Level Vancouver Center
11:29AM 53.5333 -126.5167 149° Southeast 400 460 37,000  Level Vancouver Center
11:30AM 53.4333 -126.4667 163° South 400 460 37,000  Level Vancouver Center
11:31AM 53.3333 -126.3667 149° Southeast 400 460 37,000  Level Vancouver Center
11:32AM 53.2333 -126.2833 153° Southeast 400 460 37,000  Level Vancouver Center
11:33AM 53.1333 -126.1833 149° Southeast 400 460 37,000  Level Vancouver Center
11:34AM 53.0333 -126.1333 163° South 400 460 37,000  Level Vancouver Center
11:35AM 52.9333 -126.0333 149° Southeast 400 460 37,000  Level Vancouver Center
11:36AM 52.8500 -125.9500 149° Southeast 400 460 37,000  Level Vancouver Center
11:37AM 52.7500 -125.9000 163° South 400 460 37,000  Level Vancouver Center
11:38AM 52.6333 -125.8000 153° Southeast 410 472 37,000  Level Vancouver Center
11:39AM 52.5333 -125.7167 153° Southeast 410 472 37,000  Level Vancouver Center
11:40AM 52.4333 -125.6333 153° Southeast 410 472 37,000  Level Vancouver Center
11:41AM 52.3333 -125.5667 158° South 410 472 37,000  Level Vancouver Center
11:42AM 52.2167 -125.4833 156° South 410 472 37,000  Level Vancouver Center
11:43AM 52.1167 -125.4000 153° Southeast 410 472 37,000  Level Vancouver Center
11:44AM 52.0167 -125.3167 153° Southeast 410 472 37,000  Level Vancouver Center
11:45AM 51.9167 -125.2667 163° South 410 472 37,000  Level Vancouver Center
11:46AM 51.8167 -125.1833 153° Southeast 410 472 37,000  Level Vancouver Center
11:47AM 51.7000 -125.0833 152° Southeast 410 472 37,000  Level Vancouver Center
11:48AM 51.6000 -125.0000 153° Southeast 410 472 37,000  Level Vancouver Center
11:50AM 51.4598 -124.9097 158° South  Level FlightAware Approximate
11:50AM 51.3833 -124.8667 158° South 420 483 37,000  Level Vancouver Center
11:51AM 51.2833 -124.7833 152° Southeast 410 472 37,000  Level Vancouver Center
11:52AM 51.1833 -124.7000 152° Southeast 410 472 37,000  Level Vancouver Center
11:53AM 51.0667 -124.6167 156° South 420 483 37,000  Level Vancouver Center
11:55AM 50.8667 -124.4833 157° South 410 472 37,000  Level Vancouver Center
11:56AM 50.7500 -124.4000 156° South 410 472 37,000  Level Vancouver Center
11:57AM 50.6500 -124.3333 157° South 410 472 37,000 -120 Level Vancouver Center
11:59AM 50.5186 -124.2155 152° Southeast  Level FlightAware Approximate
11:59AM 50.4500 -124.2000 152° Southeast 400 460 36,700  Level Vancouver Center
12:00PM 50.3500 -124.1167 152° Southeast 400 460 34,600 -2,220 Descending Vancouver Center
12:01PM 50.2500 -124.0667 162° South 390 449 32,300 -2,400 Descending Vancouver Center
12:02PM 50.1500 -123.9833 152° Southeast 390 449 29,800 -2,400 Descending Vancouver Center
12:04PM 50.0258 -123.8447 157° South  Level FlightAware Approximate
12:04PM 49.9667 -123.8500 157° South 370 426 25,200  Level Vancouver Center
12:05PM 49.8667 -123.8000 162° South 360 414 23,100 -2,100 Descending Vancouver Center
12:06PM 49.7833 -123.7167 147° Southeast 350 403 21,000 -2,160 Descending Vancouver Center
12:07PM 49.7000 -123.6667 159° South 340 391 18,800 -2,100 Descending Vancouver Center
12:08PM 49.6333 -123.6000 147° Southeast 320 368 16,900 -1,980 Descending Vancouver Center
12:09PM 49.5500 -123.5500 159° South 310 357 14,900 -1,740 Descending Vancouver Center
12:10PM 49.4833 -123.4833 147° Southeast 290 334 13,500 -1,500 Descending Vancouver Center
12:11PM 49.4167 -123.4167 147° Southeast 280 322 11,900 -1,800 Descending Vancouver Center
12:12PM 49.3500 -123.3667 154° Southeast 270 311 10,000 -1,800 Descending Vancouver Center
12:14PM 49.2500 -123.2167 136° Southeast 280 322 6,600 -1,560 Descending Vancouver Center
12:15PM 49.2500 -123.0833 90° East 270 311 5,400 -1,080 Descending Vancouver Center
12:16PM 49.2333 -122.9833 104° East 250 288 4,500 -900 Descending Vancouver Center
12:17PM 49.2000 -122.9000 121° Southeast 220 253 3,600 -900 Descending Vancouver Center